createdAt,value
2022-10-17T14:22:32.785Z,4.00
2022-10-17T14:25:02.841Z,3.08
2022-10-17T14:27:35.263Z,2.30
2022-10-17T14:30:08.123Z,2.72
2022-10-17T14:32:39.999Z,2.30
2022-10-17T14:35:37.184Z,2.30
2022-10-17T14:38:02.778Z,2.28
2022-10-17T14:40:32.714Z,3.33
2022-10-17T14:43:05.118Z,3.40
2022-10-17T14:45:35.513Z,3.88
2022-10-17T14:48:06.230Z,4.95
2022-10-17T14:50:36.484Z,4.75
2022-10-17T14:53:08.282Z,5.65
2022-10-17T14:55:38.858Z,5.95
2022-10-17T14:58:18.832Z,5.80
2022-10-17T15:00:47.417Z,6.43
2022-10-17T15:03:16.200Z,5.72
2022-10-17T15:05:45.014Z,5.82
2022-10-17T15:08:16.658Z,9.20
2022-10-17T15:10:46.392Z,14.32
2022-10-17T15:13:27.813Z,19.20
2022-10-17T15:15:57.752Z,14.88
2022-10-17T15:18:26.749Z,11.60
2022-10-17T15:21:04.848Z,9.25
2022-10-17T15:23:36.752Z,13.30
2022-10-17T15:26:07.750Z,6.85
2022-10-17T15:28:36.527Z,7.65
2022-10-17T15:31:05.259Z,4.70
2022-10-17T15:33:33.918Z,2.50
2022-10-17T15:36:02.727Z,3.20
2022-10-17T15:38:31.497Z,3.33
2022-10-17T15:41:02.479Z,2.53
2022-10-17T15:43:31.158Z,2.85
2022-10-17T15:46:01.938Z,2.50
2022-10-17T15:48:33.139Z,3.65
2022-10-17T15:51:01.882Z,3.03
2022-10-17T15:53:30.521Z,2.85
2022-10-17T15:56:02.510Z,3.20
2022-10-17T15:58:36.766Z,3.33
2022-10-17T16:01:07.317Z,3.33
2022-10-17T16:03:36.278Z,4.07
2022-10-17T16:06:04.976Z,3.83
2022-10-17T16:08:33.797Z,3.45
2022-10-17T16:11:03.921Z,3.40
2022-10-17T16:13:33.477Z,3.65
2022-10-17T16:16:02.197Z,4.20
2022-10-17T16:18:30.917Z,3.70
2022-10-17T16:21:00.437Z,4.40
2022-10-17T16:23:30.079Z,4.47
2022-10-17T16:25:58.801Z,4.82
